Time;durP1;ratioP1;P1;durP2;ratioP2;P2;SDS_P1;SDS_P2;PMS_P1;PMS_P2;Temp;Humidity;BMP_temperature;BMP_pressure;BME280_temperature;BME280_humidity;BME280_pressure;Samples;Min_cycle;Max_cycle;Signal;HPM_P1;HPM_P2
2021/01/19 00:02:22;;;;;;;29.63;15.47;;;;;;;-5.96;68.01;101430.56;5031426;28;20506;-70
2021/01/19 00:04:47;;;;;;;28.90;14.37;;;;;;;-5.98;67.86;101432.03;5031153;28;20454;-69
2021/01/19 00:07:12;;;;;;;29.33;15.70;;;;;;;-5.98;67.27;101434.53;5031264;28;20032;-70
2021/01/19 00:09:38;;;;;;;33.37;16.03;;;;;;;-6.02;67.00;101428.25;5013402;28;20036;-70
2021/01/19 00:12:03;;;;;;;25.90;14.97;;;;;;;-6.33;68.01;101437.16;5030932;28;20025;-70
2021/01/19 00:14:29;;;;;;;30.47;14.97;;;;;;;-6.58;68.94;101443.38;5031127;28;20030;-70
2021/01/19 00:16:54;;;;;;;28.73;14.03;;;;;;;-6.83;70.28;101441.34;5031384;28;20037;-69
2021/01/19 00:19:20;;;;;;;29.27;15.47;;;;;;;-7.17;71.84;101429.66;5031040;28;20468;-69
2021/01/19 00:21:45;;;;;;;27.73;14.17;;;;;;;-6.76;70.85;101445.47;5030835;28;20033;-70
2021/01/19 00:24:10;;;;;;;31.20;14.77;;;;;;;-6.66;70.59;101460.94;5024350;28;20061;-69
2021/01/19 00:26:39;;;;;;;25.37;13.67;;;;;;;-6.80;70.60;101460.88;5013208;28;20042;-76
2021/01/19 00:29:04;;;;;;;27.43;15.10;;;;;;;-6.72;70.65;101472.75;5031250;28;20029;-72
2021/01/19 00:31:29;;;;;;;29.00;15.17;;;;;;;-6.48;70.10;101473.03;5030985;28;20411;-71
2021/01/19 00:33:55;;;;;;;24.30;13.80;;;;;;;-6.22;69.50;101471.13;5013161;28;20026;-70
2021/01/19 00:36:20;;;;;;;29.93;15.20;;;;;;;-6.33;69.40;101429.63;5030952;28;20022;-73
2021/01/19 00:38:46;;;;;;;30.30;15.00;;;;;;;-5.99;68.56;101473.88;5030780;28;20030;-71
2021/01/19 00:41:11;;;;;;;27.57;15.07;;;;;;;-5.85;68.52;101468.81;5030250;28;20034;-72
2021/01/19 00:43:37;;;;;;;27.80;14.90;;;;;;;-5.62;67.61;101480.72;5031204;28;20108;-74
2021/01/19 00:46:02;;;;;;;29.20;16.60;;;;;;;-5.99;67.62;101411.03;5031025;28;20053;-72
2021/01/19 00:48:27;;;;;;;34.57;16.73;;;;;;;-5.66;66.88;101490.22;4988949;28;20038;-70
2021/01/19 00:50:53;;;;;;;33.90;16.43;;;;;;;-5.86;67.31;101446.00;4989202;28;20551;-71
2021/01/19 00:53:19;;;;;;;34.33;16.80;;;;;;;-5.72;66.47;101467.75;4989107;28;20125;-72
2021/01/19 00:55:44;;;;;;;32.87;15.43;;;;;;;-5.53;66.13;101473.34;4988961;28;20031;-71
2021/01/19 00:58:10;;;;;;;34.90;17.93;;;;;;;-5.72;66.54;101466.16;4988905;28;20048;-69
2021/01/19 01:00:36;;;;;;;31.87;17.37;;;;;;;-5.75;66.67;101475.84;4989108;28;20041;-70
2021/01/19 01:03:01;;;;;;;33.70;17.27;;;;;;;-5.63;66.51;101475.47;4989173;28;20078;-71
2021/01/19 01:05:27;;;;;;;36.37;17.83;;;;;;;-5.68;66.45;101454.84;4976188;28;20066;-71
2021/01/19 01:07:52;;;;;;;32.97;16.23;;;;;;;-5.59;65.90;101462.56;4992901;28;20074;-70
2021/01/19 01:10:18;;;;;;;34.53;18.80;;;;;;;-5.48;65.78;101474.78;4992190;28;20049;-71
2021/01/19 01:12:44;;;;;;;34.03;18.73;;;;;;;-5.66;66.14;101425.72;4992764;28;20030;-70
2021/01/19 01:15:11;;;;;;;34.10;17.83;;;;;;;-5.30;65.68;101470.97;4992143;28;20038;-72
2021/01/19 01:17:38;;;;;;;31.63;17.83;;;;;;;-5.20;66.53;101467.91;4992344;28;20073;-72
2021/01/19 01:20:08;;;;;;;37.23;19.90;;;;;;;-5.34;66.37;101431.06;5024041;28;20107;-71
2021/01/19 01:22:41;;;;;;;35.80;18.90;;;;;;;-5.06;65.77;101474.53;5033491;28;20045;-71
2021/01/19 01:25:08;;;;;;;35.63;18.23;;;;;;;-5.09;65.43;101466.63;5034111;28;20046;-75
2021/01/19 01:27:34;;;;;;;35.77;18.70;;;;;;;-5.04;65.83;101473.09;5033957;28;20029;-75
2021/01/19 01:29:59;;;;;;;34.33;18.80;;;;;;;-4.96;64.86;101479.91;5034436;28;20096;-72
2021/01/19 01:32:25;;;;;;;33.47;17.87;;;;;;;-5.11;65.60;101463.03;5015935;28;20587;-75
2021/01/19 01:34:50;;;;;;;34.53;16.83;;;;;;;-5.30;65.80;101457.50;5033554;28;20087;-72
2021/01/19 01:37:15;;;;;;;30.97;16.43;;;;;;;-5.41;65.35;101469.75;5033375;28;20036;-73
2021/01/19 01:39:41;;;;;;;29.83;15.40;;;;;;;-5.38;65.22;101465.06;5033152;28;20101;-72
2021/01/19 01:42:14;;;;;;;31.40;15.77;;;;;;;-5.43;65.48;101480.31;5033874;28;20028;-73
2021/01/19 01:44:39;;;;;;;27.10;14.97;;;;;;;-5.41;65.11;101467.22;4982241;28;20466;-72
2021/01/19 01:47:14;;;;;;;25.17;14.97;;;;;;;-5.49;64.91;101445.28;5033856;28;20025;-73
2021/01/19 01:49:39;;;;;;;25.20;13.77;;;;;;;-5.42;64.33;101456.94;5033443;28;20109;-74
2021/01/19 01:52:05;;;;;;;29.90;15.13;;;;;;;-5.31;63.95;101450.66;5033412;28;20454;-71
2021/01/19 01:54:30;;;;;;;26.40;14.63;;;;;;;-5.44;62.69;101420.66;5033510;28;20029;-72
2021/01/19 01:56:56;;;;;;;27.23;13.13;;;;;;;-5.14;62.43;101450.97;5014777;28;20079;-74
2021/01/19 01:59:22;;;;;;;26.17;14.77;;;;;;;-5.48;62.21;101416.91;5033432;28;20033;-72
2021/01/19 02:01:47;;;;;;;28.07;15.67;;;;;;;-5.31;62.26;101453.19;5033170;28;20029;-74
2021/01/19 02:04:12;;;;;;;25.73;15.23;;;;;;;-5.22;61.97;101440.03;5033357;28;20021;-71
2021/01/19 02:06:38;;;;;;;26.87;17.03;;;;;;;-5.50;61.82;101395.69;5032901;28;20026;-71
2021/01/19 02:09:19;;;;;;;30.57;18.67;;;;;;;-5.44;61.32;101438.28;5015528;28;20029;-69
2021/01/19 02:11:56;;;;;;;33.73;19.33;;;;;;;-5.50;62.04;101435.94;5033240;28;20476;-71
2021/01/19 02:14:34;;;;;;;33.90;18.03;;;;;;;-5.37;61.78;101428.19;5032941;28;20113;-70
2021/01/19 02:17:40;;;;;;;29.17;15.63;;;;;;;-5.39;61.67;101438.09;5031785;28;20037;-70
2021/01/19 02:20:33;;;;;;;28.93;16.57;;;;;;;-5.27;61.36;101430.16;4952605;29;20164;-71
2021/01/19 02:23:21;;;;;;;28.17;16.40;;;;;;;-5.21;61.26;101423.31;4952208;29;20114;-71
2021/01/19 02:26:01;;;;;;;27.23;14.63;;;;;;;-5.11;61.00;101426.19;4952299;29;20097;-71
2021/01/19 02:28:58;;;;;;;23.17;13.10;;;;;;;-5.09;60.28;101429.75;4952493;29;20454;-71
2021/01/19 02:31:41;;;;;;;22.30;13.03;;;;;;;-5.30;60.83;101382.00;4951944;29;20036;-70
2021/01/19 02:34:21;;;;;;;24.63;13.93;;;;;;;-5.18;60.84;101436.25;4952256;29;20116;-71
2021/01/19 02:36:50;;;;;;;30.20;19.03;;;;;;;-5.42;60.95;101426.75;4952101;29;20039;-71
2021/01/19 02:39:24;;;;;;;29.37;18.80;;;;;;;-5.31;61.28;101425.50;4952349;29;20083;-71
2021/01/19 02:41:52;;;;;;;26.33;13.20;;;;;;;-5.29;61.02;101419.03;4919761;29;20044;-71
2021/01/19 02:44:25;;;;;;;24.20;12.33;;;;;;;-5.15;60.98;101418.09;4917407;29;20181;-72
2021/01/19 02:46:53;;;;;;;22.17;11.87;;;;;;;-5.50;60.79;101403.22;4932789;29;20128;-71
2021/01/19 02:49:19;;;;;;;22.17;12.90;;;;;;;-5.44;61.29;101401.44;4932982;29;20043;-71
2021/01/19 02:51:46;;;;;;;25.27;14.67;;;;;;;-5.09;61.01;101424.72;5020631;28;20029;-75
2021/01/19 02:54:12;;;;;;;25.07;13.77;;;;;;;-5.02;60.32;101408.69;5031943;28;20025;-73
2021/01/19 02:56:53;;;;;;;22.33;12.60;;;;;;;-4.91;59.87;101413.34;5031974;28;20063;-69
2021/01/19 02:59:56;;;;;;;24.17;13.93;;;;;;;-4.97;60.85;101424.31;5032117;28;20030;-71
2021/01/19 03:02:26;;;;;;;20.13;12.10;;;;;;;-4.85;60.48;101423.19;4951891;29;20242;-68
2021/01/19 03:04:53;;;;;;;25.02;13.75;;;;;;;-4.84;61.01;101417.44;4951606;29;20063;-71
2021/01/19 03:07:21;;;;;;;20.83;12.03;;;;;;;-5.01;60.52;101377.72;4951860;29;20043;-72
2021/01/19 03:09:49;;;;;;;22.03;12.50;;;;;;;-4.84;60.45;101414.91;4951922;29;20548;-71
2021/01/19 03:12:16;;;;;;;24.67;13.83;;;;;;;-4.96;60.75;101421.06;4951383;29;20023;-71
2021/01/19 03:14:42;;;;;;;23.07;12.60;;;;;;;-5.25;60.80;101389.31;4951731;29;20042;-71
2021/01/19 03:17:10;;;;;;;38.00;18.27;;;;;;;-5.23;61.48;101408.03;4951305;29;20522;-72
2021/01/19 03:19:41;;;;;;;38.07;19.63;;;;;;;-5.17;62.64;101424.56;4951053;29;20498;-71
2021/01/19 03:22:08;;;;;;;35.57;19.10;;;;;;;-5.18;62.63;101416.13;4951441;29;20043;-72
2021/01/19 03:24:33;;;;;;;32.67;16.77;;;;;;;-5.37;63.29;101421.56;4951206;29;20055;-71
2021/01/19 03:26:59;;;;;;;27.87;13.87;;;;;;;-5.58;64.07;101425.00;4951331;28;20043;-71
2021/01/19 03:29:25;;;;;;;26.77;13.97;;;;;;;-6.02;65.17;101423.22;4937306;29;20039;-70
2021/01/19 03:31:50;;;;;;;27.27;13.97;;;;;;;-6.12;65.33;101408.66;4950088;29;20043;-71
2021/01/19 03:34:16;;;;;;;26.53;14.47;;;;;;;-6.26;65.95;101391.06;4949491;29;20129;-71
2021/01/19 03:36:42;;;;;;;26.00;13.80;;;;;;;-6.35;66.11;101375.81;4934573;29;20071;-72
2021/01/19 03:39:07;;;;;;;26.37;14.67;;;;;;;-6.33;66.58;101374.34;4987857;28;20064;-74
2021/01/19 03:41:33;;;;;;;28.90;15.93;;;;;;;-6.09;66.53;101415.66;5030609;28;20073;-71
2021/01/19 03:43:58;;;;;;;26.77;14.97;;;;;;;-5.94;66.35;101421.59;5031505;28;20032;-72
2021/01/19 03:46:25;;;;;;;28.47;15.83;;;;;;;-5.98;65.70;101424.47;5030759;28;20496;-73
2021/01/19 03:48:51;;;;;;;28.37;15.10;;;;;;;-5.98;66.14;101427.88;4996480;28;20048;-72
2021/01/19 03:51:16;;;;;;;27.43;15.63;;;;;;;-5.97;66.36;101436.31;5031267;28;20108;-72
2021/01/19 03:53:41;;;;;;;24.30;14.37;;;;;;;-6.35;67.07;101384.22;5031236;28;20026;-74
2021/01/19 03:56:07;;;;;;;25.43;14.50;;;;;;;-6.08;66.93;101428.44;5013233;28;20025;-72
2021/01/19 03:58:33;;;;;;;27.53;15.13;;;;;;;-6.21;66.85;101397.53;5031062;28;20112;-72
2021/01/19 04:00:59;;;;;;;26.97;14.73;;;;;;;-6.26;67.47;101428.75;5031030;28;20112;-74
2021/01/19 04:03:24;;;;;;;28.93;14.97;;;;;;;-6.22;67.45;101443.47;5031017;28;20121;-75
2021/01/19 04:05:49;;;;;;;27.63;15.43;;;;;;;-6.18;67.39;101435.59;5031344;28;20037;-76
2021/01/19 04:08:15;;;;;;;28.33;14.23;;;;;;;-6.11;67.12;101437.22;5031070;28;20022;-74
2021/01/19 04:10:40;;;;;;;28.37;15.40;;;;;;;-5.96;66.34;101439.00;5030819;28;20492;-73
2021/01/19 04:13:06;;;;;;;26.57;14.63;;;;;;;-5.95;66.30;101433.25;5029950;28;20108;-72
2021/01/19 04:15:31;;;;;;;27.80;15.30;;;;;;;-5.87;66.19;101439.19;5030539;28;20029;-73
2021/01/19 04:17:57;;;;;;;31.60;15.00;;;;;;;-5.83;66.36;101441.34;5030917;28;20033;-72
2021/01/19 04:20:22;;;;;;;30.70;15.33;;;;;;;-5.78;65.96;101450.34;5029828;28;20427;-71
2021/01/19 04:22:48;;;;;;;27.33;15.23;;;;;;;-5.86;66.21;101448.53;5030905;28;20026;-73
2021/01/19 04:25:13;;;;;;;28.77;16.40;;;;;;;-6.10;66.10;101422.31;5030978;28;20108;-75
2021/01/19 04:27:39;;;;;;;25.93;14.83;;;;;;;-6.13;66.79;101438.66;5030682;28;20052;-74
2021/01/19 04:30:08;;;;;;;26.83;15.33;;;;;;;-6.32;67.44;101455.69;5030775;28;20061;-78
2021/01/19 04:32:35;;;;;;;32.20;18.27;;;;;;;-6.63;68.01;101455.38;5012993;28;20052;-73
2021/01/19 04:35:01;;;;;;;32.93;16.47;;;;;;;-6.90;68.48;101468.00;5026157;28;20025;-71
2021/01/19 04:37:27;;;;;;;30.43;17.87;;;;;;;-6.86;67.69;101455.13;5029892;28;20471;-72
2021/01/19 04:39:53;;;;;;;34.97;18.53;;;;;;;-6.70;68.23;101476.34;5032668;28;20036;-72
2021/01/19 04:42:19;;;;;;;32.87;17.77;;;;;;;-6.62;67.74;101479.78;5034662;28;20060;-72
2021/01/19 04:44:47;;;;;;;38.20;21.93;;;;;;;-6.54;67.47;101484.13;5034523;28;20033;-73
2021/01/19 04:47:13;;;;;;;38.27;21.47;;;;;;;-6.58;67.48;101493.63;5034698;28;20025;-72
2021/01/19 04:49:40;;;;;;;37.37;21.70;;;;;;;-6.54;66.46;101488.25;5033625;28;20136;-73
2021/01/19 04:52:06;;;;;;;33.60;18.60;;;;;;;-6.54;65.61;101495.78;5031049;28;20399;-74
2021/01/19 04:54:54;;;;;;;39.13;20.67;;;;;;;-6.58;65.62;101497.06;5016109;28;20032;-74
2021/01/19 04:57:20;;;;;;;32.47;16.77;;;;;;;-6.66;65.69;101492.69;5033102;28;20052;-72
2021/01/19 04:59:55;;;;;;;31.80;15.27;;;;;;;-6.88;65.81;101451.50;5034111;28;20026;-72
2021/01/19 05:02:20;;;;;;;38.80;16.83;;;;;;;-6.56;65.60;101500.63;5033037;28;20021;-74
2021/01/19 05:04:47;;;;;;;44.30;23.27;;;;;;;-6.59;65.70;101485.19;5033261;28;20116;-73
2021/01/19 05:07:34;;;;;;;47.37;22.83;;;;;;;-6.83;65.80;101451.38;5033109;28;20072;-71
2021/01/19 05:10:08;;;;;;;39.63;17.73;;;;;;;-6.83;66.36;101504.09;5033220;28;20091;-71
2021/01/19 05:12:45;;;;;;;32.87;16.50;;;;;;;-7.11;66.10;101464.66;5029621;28;20470;-71
2021/01/19 05:15:15;;;;;;;32.00;16.93;;;;;;;-7.05;67.21;101525.66;5032939;28;20091;-72
2021/01/19 05:17:42;;;;;;;36.23;17.53;;;;;;;-7.07;67.65;101541.25;5014277;28;20037;-78
2021/01/19 05:20:10;;;;;;;31.83;17.57;;;;;;;-7.41;68.18;101532.91;5033463;28;20029;-78
2021/01/19 05:22:35;;;;;;;50.67;27.80;;;;;;;-7.44;68.27;101514.97;5016163;28;20551;-78
2021/01/19 05:25:01;;;;;;;45.50;25.10;;;;;;;-7.20;67.74;101514.63;5015869;28;20141;-78
2021/01/19 05:27:27;;;;;;;39.27;21.50;;;;;;;-6.97;67.02;101528.22;5016151;28;20059;-78
2021/01/19 05:30:20;;;;;;;37.03;18.47;;;;;;;-6.80;65.90;101528.69;5015796;28;20025;-78
2021/01/19 05:32:46;;;;;;;39.60;20.27;;;;;;;-6.94;65.85;101483.41;4935032;29;20039;-77
2021/01/19 05:35:17;;;;;;;41.37;19.20;;;;;;;-6.84;65.50;101501.38;4938098;29;20433;-78
2021/01/19 05:37:56;;;;;;;32.83;18.47;;;;;;;-6.74;66.14;101524.41;4941506;29;20039;-73
2021/01/19 05:40:22;;;;;;;46.93;21.87;;;;;;;-6.76;66.54;101495.69;4937985;29;20132;-72
2021/01/19 05:42:48;;;;;;;48.17;24.23;;;;;;;-6.58;65.84;101524.69;4925617;29;20039;-71
2021/01/19 05:45:33;;;;;;;43.83;23.47;;;;;;;-6.77;67.40;101526.53;4942170;29;20071;-71
2021/01/19 05:48:14;;;;;;;50.90;22.87;;;;;;;-6.84;66.80;101542.47;4933031;29;20597;-73
2021/01/19 05:50:40;;;;;;;41.37;21.73;;;;;;;-7.01;66.79;101490.19;4932647;29;20478;-72
2021/01/19 05:53:13;;;;;;;56.30;23.07;;;;;;;-6.88;67.17;101514.28;4933708;29;20174;-79
2021/01/19 05:55:45;;;;;;;56.03;24.37;;;;;;;-6.74;67.42;101528.50;4933361;29;20075;-76
2021/01/19 05:58:15;;;;;;;50.03;25.33;;;;;;;-6.70;67.20;101536.63;4933953;29;20113;-75
2021/01/19 06:00:42;;;;;;;65.13;24.27;;;;;;;-6.76;67.39;101532.47;4922074;29;20046;-72
2021/01/19 06:03:17;;;;;;;42.53;22.47;;;;;;;-6.66;67.21;101545.44;4931911;29;20068;-71
2021/01/19 06:05:44;;;;;;;46.13;22.30;;;;;;;-6.64;67.55;101538.09;4930160;29;20115;-72
2021/01/19 06:08:11;;;;;;;43.80;21.10;;;;;;;-6.55;66.43;101526.66;4930777;29;20048;-72
2021/01/19 06:10:38;;;;;;;53.17;24.60;;;;;;;-6.37;65.84;101540.53;4987322;28;20050;-71
2021/01/19 06:13:13;;;;;;;56.17;25.20;;;;;;;-6.62;65.93;101493.97;4988053;28;20138;-72
2021/01/19 06:15:40;;;;;;;50.03;23.10;;;;;;;-6.37;68.01;101538.03;4983560;28;20153;-74
2021/01/19 06:18:06;;;;;;;41.17;20.93;;;;;;;-6.31;71.49;101548.81;4980526;28;20454;-73
2021/01/19 06:20:39;;;;;;;39.80;19.80;;;;;;;-6.57;68.03;101502.97;5026959;28;20033;-69
2021/01/19 06:23:05;;;;;;;36.73;18.33;;;;;;;-6.56;67.23;101494.72;5029730;28;20454;-70
2021/01/19 06:25:32;;;;;;;33.57;17.37;;;;;;;-6.39;66.93;101530.31;5026480;28;20041;-70
2021/01/19 06:28:07;;;;;;;31.43;16.70;;;;;;;-6.26;66.40;101541.84;5020145;28;20030;-68
2021/01/19 06:30:33;;;;;;;33.13;18.30;;;;;;;-6.18;65.73;101538.63;5025534;28;20046;-73
2021/01/19 06:33:01;;;;;;;31.47;15.53;;;;;;;-6.08;65.71;101549.09;5015517;28;20029;-71
2021/01/19 06:35:26;;;;;;;31.27;16.43;;;;;;;-6.09;67.37;101547.31;5032516;28;20048;-73
2021/01/19 06:37:54;;;;;;;35.20;17.83;;;;;;;-6.09;66.36;101551.41;5032243;28;20022;-69
2021/01/19 06:40:21;;;;;;;32.40;17.10;;;;;;;-6.09;66.35;101546.38;5034438;28;20399;-67
2021/01/19 06:42:54;;;;;;;34.23;16.73;;;;;;;-6.12;66.43;101541.00;5032352;28;20036;-69
2021/01/19 06:45:20;;;;;;;25.93;14.23;;;;;;;-6.10;65.98;101545.50;5032209;28;20705;-69
2021/01/19 06:47:51;;;;;;;27.87;15.33;;;;;;;-6.15;65.98;101540.66;5030477;28;20527;-69
2021/01/19 06:50:22;;;;;;;25.77;15.17;;;;;;;-6.29;67.21;101561.56;5032057;28;20407;-69
2021/01/19 06:53:10;;;;;;;25.97;14.80;;;;;;;-6.26;66.87;101567.88;5031905;28;20033;-68
2021/01/19 06:55:59;;;;;;;30.85;17.08;;;;;;;-6.30;67.08;101564.81;4948012;29;20191;-69
2021/01/19 06:58:57;;;;;;;29.38;15.45;;;;;;;-6.36;67.07;101570.88;4951985;28;20224;-70
2021/01/19 07:01:28;;;;;;;28.20;15.37;;;;;;;-6.31;67.33;101571.44;4881519;29;20062;-69
2021/01/19 07:04:12;;;;;;;30.80;15.20;;;;;;;-6.32;68.05;101573.78;4884885;29;20127;-69
2021/01/19 07:07:06;;;;;;;33.10;15.87;;;;;;;-6.35;67.97;101591.91;4882984;29;20049;-73
2021/01/19 07:09:49;;;;;;;30.50;15.77;;;;;;;-6.29;68.23;101585.09;4866124;29;20041;-70
2021/01/19 07:12:20;;;;;;;30.47;16.77;;;;;;;-6.25;67.81;101593.94;4873947;29;20041;-70
2021/01/19 07:15:01;;;;;;;34.00;18.13;;;;;;;-6.51;68.66;101548.91;4860352;29;20056;-70
2021/01/19 07:17:50;;;;;;;33.13;17.20;;;;;;;-6.12;69.35;101599.69;4876192;29;20049;-71
2021/01/19 07:20:28;;;;;;;32.63;15.90;;;;;;;-5.99;68.91;101583.59;4876539;29;20582;-71
2021/01/19 07:23:17;;;;;;;31.00;16.90;;;;;;;-5.88;68.42;101581.63;4860339;29;20029;-70
2021/01/19 07:25:42;;;;;;;33.45;16.42;;;;;;;-5.75;68.06;101580.59;4875917;29;20117;-70
2021/01/19 07:28:08;;;;;;;29.50;16.97;;;;;;;-5.70;68.41;101582.91;4845001;29;20492;-71
2021/01/19 07:30:34;;;;;;;30.83;16.37;;;;;;;-5.49;68.17;101585.31;4875933;29;20423;-71
2021/01/19 07:33:00;;;;;;;33.37;16.00;;;;;;;-5.38;67.21;101587.47;4899459;29;20044;-71
2021/01/19 07:35:27;;;;;;;28.07;15.70;;;;;;;-5.28;66.52;101586.97;4897587;29;20088;-70
2021/01/19 07:37:58;;;;;;;29.47;16.23;;;;;;;-5.15;66.33;101589.28;4999163;28;20058;-71
2021/01/19 07:40:24;;;;;;;29.47;15.33;;;;;;;-5.17;67.23;101591.63;5012392;28;20030;-70
2021/01/19 07:42:49;;;;;;;31.40;17.73;;;;;;;-5.00;67.52;101587.66;5011840;28;20037;-71
2021/01/19 07:45:16;;;;;;;27.10;15.40;;;;;;;-4.85;67.66;101581.00;5012247;28;20026;-71
2021/01/19 07:47:43;;;;;;;28.73;15.73;;;;;;;-4.80;67.07;101585.81;5011535;28;20034;-71
2021/01/19 07:50:12;;;;;;;25.17;15.03;;;;;;;-4.83;67.45;101589.63;4977205;28;20427;-71
2021/01/19 07:52:40;;;;;;;30.10;15.82;;;;;;;-4.72;66.84;101579.19;5012005;28;20030;-70
2021/01/19 07:55:17;;;;;;;27.17;14.63;;;;;;;-4.73;66.36;101552.19;5016534;28;20029;-69
2021/01/19 07:57:44;;;;;;;24.40;14.60;;;;;;;-4.41;66.33;101583.59;5021969;28;20076;-71
2021/01/19 08:00:11;;;;;;;30.70;16.23;;;;;;;-4.32;66.34;101598.88;5029162;28;20033;-71
2021/01/19 08:02:36;;;;;;;28.53;14.90;;;;;;;-4.28;65.52;101595.09;5031032;28;20084;-70
2021/01/19 08:05:05;;;;;;;26.57;14.47;;;;;;;-4.31;65.90;101589.69;5031190;28;20030;-70
2021/01/19 08:07:44;;;;;;;30.20;16.90;;;;;;;-4.16;66.04;101599.00;5031227;28;20032;-71
2021/01/19 08:10:26;;;;;;;34.25;19.05;;;;;;;-4.07;66.38;101600.03;5031463;28;20030;-71
2021/01/19 08:12:55;;;;;;;27.93;16.50;;;;;;;-4.24;66.51;101602.25;5031599;28;20483;-70
2021/01/19 08:15:31;;;;;;;29.75;16.85;;;;;;;-3.92;65.95;101602.50;5030851;28;20033;-71
2021/01/19 08:17:58;;;;;;;31.50;18.00;;;;;;;-3.77;65.39;101603.31;5031655;28;20083;-72
2021/01/19 08:20:34;;;;;;;32.57;17.13;;;;;;;-3.62;65.52;101605.03;5031658;28;20442;-71
2021/01/19 08:23:14;;;;;;;31.97;18.83;;;;;;;-3.47;65.84;101605.84;5031682;28;20380;-68
2021/01/19 08:25:40;;;;;;;32.55;17.83;;;;;;;-3.30;65.32;101607.72;5031506;28;20061;-71
2021/01/19 08:28:08;;;;;;;31.90;18.43;;;;;;;-3.12;65.08;101601.25;5032491;28;20036;-71
2021/01/19 08:30:34;;;;;;;31.80;17.27;;;;;;;-2.94;64.07;101593.88;5031184;28;20095;-71
2021/01/19 08:33:00;;;;;;;28.87;16.33;;;;;;;-2.94;63.91;101594.81;5031511;28;20025;-71
2021/01/19 08:35:28;;;;;;;34.40;21.10;;;;;;;-2.83;65.01;101601.03;5031053;28;20053;-71
2021/01/19 08:38:06;;;;;;;36.30;20.17;;;;;;;-2.66;65.08;101607.91;5023172;28;20075;-70
2021/01/19 08:40:45;;;;;;;35.45;17.92;;;;;;;-2.54;64.52;101604.88;5031941;28;20038;-70
2021/01/19 08:43:13;;;;;;;25.93;15.17;;;;;;;-2.50;62.25;101596.91;4984454;28;20065;-71
2021/01/19 08:45:39;;;;;;;23.83;14.70;;;;;;;-2.72;61.88;101593.72;5011739;28;20026;-71
2021/01/19 08:48:07;;;;;;;21.33;12.43;;;;;;;-2.81;61.19;101576.81;5011339;28;20467;-71
2021/01/19 08:50:36;;;;;;;18.53;10.47;;;;;;;-2.64;57.63;101595.44;5011021;28;20560;-71
2021/01/19 08:53:08;;;;;;;;;;;;;;;-2.61;57.80;101598.28;5011921;28;20028;-71
2021/01/19 08:55:34;;;;;;;19.10;10.83;;;;;;;-2.52;58.32;101586.63;5021048;28;19951;-71
2021/01/19 08:58:00;;;;;;;16.10;9.77;;;;;;;-2.49;58.42;101597.06;5031236;28;20033;-71
2021/01/19 09:00:33;;;;;;;15.47;9.03;;;;;;;-2.61;58.21;101600.81;5031055;28;20045;-71
2021/01/19 09:03:00;;;;;;;14.80;9.07;;;;;;;-2.63;57.96;101605.72;5030821;28;20078;-71
2021/01/19 09:05:26;;;;;;;15.63;9.47;;;;;;;-2.62;57.78;101601.53;5031000;28;20511;-70
2021/01/19 09:07:53;;;;;;;16.73;9.70;;;;;;;-2.61;58.17;101598.28;5030811;28;20572;-71
2021/01/19 09:10:27;;;;;;;16.87;8.77;;;;;;;-2.54;57.73;101593.16;5030588;28;20047;-70
2021/01/19 09:12:54;;;;;;;18.10;8.53;;;;;;;-2.56;57.26;101569.34;5019984;28;20484;-70
2021/01/19 09:15:21;;;;;;;17.40;10.13;;;;;;;-2.31;58.87;101595.59;5011002;28;20018;-70
2021/01/19 09:17:57;;;;;;;15.67;9.97;;;;;;;-2.21;57.88;101586.47;5010884;28;20109;-70
2021/01/19 09:20:44;;;;;;;32.17;21.37;;;;;;;-2.17;58.13;101573.41;4969614;28;20521;-70
2021/01/19 09:23:16;;;;;;;60.70;31.93;;;;;;;-2.00;57.26;101583.66;4969477;28;20043;-71
2021/01/19 09:25:45;;;;;;;18.57;10.13;;;;;;;-1.90;55.96;101570.34;4971198;28;20068;-67
2021/01/19 09:28:12;;;;;;;77.53;38.08;;;;;;;-1.91;55.70;101580.31;4981481;28;20112;-70
2021/01/19 09:30:39;;;;;;;13.53;7.20;;;;;;;-2.45;53.56;101500.56;4989850;28;20559;-70
2021/01/19 09:33:06;;;;;;;58.80;31.70;;;;;;;-1.96;53.93;101565.56;4976105;28;20070;-70
2021/01/19 09:35:52;;;;;;;29.97;16.63;;;;;;;-2.03;53.58;101568.19;4992310;28;20034;-71
2021/01/19 09:38:18;;;;;;;14.97;9.20;;;;;;;-2.05;51.95;101521.56;4972785;28;20609;-71
2021/01/19 09:41:05;;;;;;;53.20;33.53;;;;;;;-1.86;54.55;101520.94;4959288;28;20047;-70
2021/01/19 09:43:32;;;;;;;18.87;12.90;;;;;;;-1.54;51.95;101556.28;4940681;28;20096;-71
2021/01/19 09:46:06;;;;;;;16.27;9.47;;;;;;;-1.34;52.42;101548.19;4972689;28;20053;-71
2021/01/19 09:48:34;;;;;;;13.63;8.63;;;;;;;-1.41;52.30;101544.13;4972521;28;20596;-70
2021/01/19 09:51:02;;;;;;;14.07;8.67;;;;;;;-1.34;51.19;101543.13;4972251;28;20031;-71
2021/01/19 09:53:32;;;;;;;13.73;7.80;;;;;;;-1.43;50.16;101524.44;4972593;28;20541;-70
2021/01/19 09:55:58;;;;;;;16.27;9.77;;;;;;;-1.06;51.01;101530.72;4972359;28;20041;-71
2021/01/19 09:58:25;;;;;;;15.47;9.87;;;;;;;-0.95;49.32;101525.06;4955227;28;20039;-71
2021/01/19 10:00:52;;;;;;;17.63;10.90;;;;;;;-0.62;48.41;101530.81;4934134;29;20044;-71
2021/01/19 10:03:20;;;;;;;12.40;7.47;;;;;;;-0.86;48.30;101526.00;4933967;29;20051;-71
2021/01/19 10:05:57;;;;;;;11.50;7.33;;;;;;;-0.77;48.03;101518.41;4933715;29;20918;-71
2021/01/19 10:08:23;;;;;;;13.67;8.17;;;;;;;-0.73;48.42;101514.53;4934011;29;20043;-71
2021/01/19 10:10:49;;;;;;;13.07;8.17;;;;;;;-0.69;49.24;101511.56;4943613;29;20035;-71
2021/01/19 10:13:14;;;;;;;12.20;8.30;;;;;;;-0.63;48.57;101512.16;4984428;28;20068;-70
2021/01/19 10:15:40;;;;;;;16.83;8.40;;;;;;;-0.51;47.84;101503.22;4991982;28;20046;-74
2021/01/19 10:18:05;;;;;;;11.73;7.40;;;;;;;-0.63;48.11;101498.59;5013202;28;20179;-68
2021/01/19 10:20:36;;;;;;;13.87;8.27;;;;;;;-0.67;48.45;101494.88;5013758;28;20040;-70
2021/01/19 10:23:04;;;;;;;11.10;6.93;;;;;;;-0.84;47.69;101495.72;5013558;28;20092;-70
2021/01/19 10:25:37;;;;;;;11.57;6.90;;;;;;;-0.76;47.96;101494.84;4978973;28;20045;-68
2021/01/19 10:28:04;;;;;;;13.30;6.63;;;;;;;-0.51;46.57;101485.47;5013260;28;20029;-71
2021/01/19 10:30:34;;;;;;;13.97;7.60;;;;;;;-0.12;46.21;101493.38;5013148;28;20057;-70
2021/01/19 10:33:01;;;;;;;15.53;7.80;;;;;;;-0.28;45.87;101479.19;5012953;28;20034;-71
2021/01/19 10:35:35;;;;;;;13.80;7.43;;;;;;;-0.05;45.86;101475.41;5013338;28;20550;-74
2021/01/19 10:38:01;;;;;;;12.80;6.90;;;;;;;-0.66;46.03;101436.69;5012530;28;20037;-72
2021/01/19 10:40:28;;;;;;;11.97;7.70;;;;;;;-0.11;45.10;101469.75;5012976;28;20049;-73
2021/01/19 10:42:54;;;;;;;12.77;8.03;;;;;;;0.06;45.67;101462.09;5012898;28;20117;-70
2021/01/19 10:45:31;;;;;;;13.77;7.77;;;;;;;0.12;45.72;101454.19;5012904;28;20560;-70
2021/01/19 10:47:59;;;;;;;12.10;7.03;;;;;;;0.06;44.40;101446.00;5013283;28;20097;-72
2021/01/19 10:50:33;;;;;;;12.20;7.03;;;;;;;-0.11;43.90;101445.28;5013022;28;20129;-70
2021/01/19 10:53:03;;;;;;;17.60;9.80;;;;;;;0.16;43.19;101423.25;5013135;28;20097;-75
2021/01/19 10:55:30;;;;;;;12.27;7.63;;;;;;;0.05;43.98;101440.03;5032360;28;20025;-70
2021/01/19 10:57:57;;;;;;;13.60;7.93;;;;;;;0.19;44.32;101435.34;5032720;28;20033;-68
2021/01/19 11:00:26;;;;;;;15.03;6.17;;;;;;;0.08;43.96;101432.69;5032740;28;20454;-71
2021/01/19 11:02:52;;;;;;;15.27;6.13;;;;;;;-0.17;44.60;101430.34;5022638;28;20500;-69
2021/01/19 11:05:18;;;;;;;10.63;7.10;;;;;;;0.20;44.29;101424.44;5026707;28;20025;-71
2021/01/19 11:07:45;;;;;;;13.80;8.00;;;;;;;0.42;44.35;101407.00;5023714;28;20022;-75
2021/01/19 11:10:12;;;;;;;12.60;7.23;;;;;;;0.69;43.11;101402.69;5032206;28;20022;-75
2021/01/19 11:12:38;;;;;;;14.47;8.50;;;;;;;0.87;43.33;101399.25;5032410;28;20398;-75
2021/01/19 11:15:06;;;;;;;11.93;7.53;;;;;;;0.57;42.66;101390.63;5023622;28;20025;-73
2021/01/19 11:17:31;;;;;;;11.80;7.37;;;;;;;0.21;45.18;101398.28;5021403;28;20037;-72
2021/01/19 11:19:57;;;;;;;11.40;7.23;;;;;;;0.12;43.92;101368.72;5024333;28;20494;-70
2021/01/19 11:22:22;;;;;;;16.37;10.07;;;;;;;0.26;43.75;101392.00;5026915;28;20431;-69
2021/01/19 11:24:47;;;;;;;12.07;7.27;;;;;;;-0.10;43.74;101340.47;5025317;28;20041;-71